sensor_id;sensor_type;location;lat;lon;timestamp;P1;durP1;ratioP1;P2;durP2;ratioP2
19879;SDS011;10102;50.828;4.416;2023-05-02T00:00:12;69.55;;;30.23;;
19879;SDS011;10102;50.828;4.416;2023-05-02T00:02:38;77.32;;;32.60;;
19879;SDS011;10102;50.828;4.416;2023-05-02T00:05:05;69.45;;;31.10;;
19879;SDS011;10102;50.828;4.416;2023-05-02T00:07:31;75.60;;;31.58;;
19879;SDS011;10102;50.828;4.416;2023-05-02T00:09:57;72.25;;;32.30;;
19879;SDS011;10102;50.828;4.416;2023-05-02T00:12:26;73.32;;;32.80;;
19879;SDS011;10102;50.828;4.416;2023-05-02T00:14:52;76.88;;;33.08;;
19879;SDS011;10102;50.828;4.416;2023-05-02T00:17:18;69.22;;;30.27;;
19879;SDS011;10102;50.828;4.416;2023-05-02T00:19:44;80.35;;;32.92;;
19879;SDS011;10102;50.828;4.416;2023-05-02T00:22:10;67.20;;;29.95;;
19879;SDS011;10102;50.828;4.416;2023-05-02T00:24:36;65.28;;;30.35;;
19879;SDS011;10102;50.828;4.416;2023-05-02T00:27:02;57.63;;;28.35;;
19879;SDS011;10102;50.828;4.416;2023-05-02T00:29:29;58.60;;;25.85;;
19879;SDS011;10102;50.828;4.416;2023-05-02T00:31:55;54.05;;;25.92;;
19879;SDS011;10102;50.828;4.416;2023-05-02T00:34:22;52.55;;;25.35;;
19879;SDS011;10102;50.828;4.416;2023-05-02T00:36:48;54.00;;;24.85;;
19879;SDS011;10102;50.828;4.416;2023-05-02T00:39:14;54.67;;;23.42;;
19879;SDS011;10102;50.828;4.416;2023-05-02T00:41:40;52.85;;;25.02;;
19879;SDS011;10102;50.828;4.416;2023-05-02T00:44:06;50.13;;;23.13;;
19879;SDS011;10102;50.828;4.416;2023-05-02T00:46:32;47.92;;;23.98;;
19879;SDS011;10102;50.828;4.416;2023-05-02T00:48:59;52.03;;;23.15;;
19879;SDS011;10102;50.828;4.416;2023-05-02T00:51:25;48.17;;;22.80;;
19879;SDS011;10102;50.828;4.416;2023-05-02T00:53:51;51.83;;;23.63;;
19879;SDS011;10102;50.828;4.416;2023-05-02T00:56:18;53.03;;;22.88;;
19879;SDS011;10102;50.828;4.416;2023-05-02T00:58:43;49.55;;;22.55;;
19879;SDS011;10102;50.828;4.416;2023-05-02T01:14:53;44.35;;;20.88;;
19879;SDS011;10102;50.828;4.416;2023-05-02T01:17:22;47.25;;;23.70;;
19879;SDS011;10102;50.828;4.416;2023-05-02T01:20:02;42.88;;;21.45;;
19879;SDS011;10102;50.828;4.416;2023-05-02T01:22:32;43.13;;;21.48;;
19879;SDS011;10102;50.828;4.416;2023-05-02T01:25:03;45.13;;;21.92;;
19879;SDS011;10102;50.828;4.416;2023-05-02T01:30:46;53.47;;;23.10;;
19879;SDS011;10102;50.828;4.416;2023-05-02T01:33:14;43.60;;;23.45;;
19879;SDS011;10102;50.828;4.416;2023-05-02T01:35:43;49.63;;;22.25;;
19879;SDS011;10102;50.828;4.416;2023-05-02T01:38:13;50.88;;;21.33;;
19879;SDS011;10102;50.828;4.416;2023-05-02T01:40:41;43.85;;;22.27;;
19879;SDS011;10102;50.828;4.416;2023-05-02T01:43:10;45.13;;;22.75;;
19879;SDS011;10102;50.828;4.416;2023-05-02T01:45:46;40.50;;;22.15;;
19879;SDS011;10102;50.828;4.416;2023-05-02T01:48:14;46.92;;;21.98;;
19879;SDS011;10102;50.828;4.416;2023-05-02T01:50:42;44.60;;;18.95;;
19879;SDS011;10102;50.828;4.416;2023-05-02T01:53:09;45.33;;;20.35;;
19879;SDS011;10102;50.828;4.416;2023-05-02T01:55:37;39.45;;;19.50;;
19879;SDS011;10102;50.828;4.416;2023-05-02T01:58:07;34.03;;;19.20;;
19879;SDS011;10102;50.828;4.416;2023-05-02T02:00:34;41.50;;;20.33;;
19879;SDS011;10102;50.828;4.416;2023-05-02T02:03:01;38.10;;;20.17;;
19879;SDS011;10102;50.828;4.416;2023-05-02T02:05:29;45.72;;;19.42;;
19879;SDS011;10102;50.828;4.416;2023-05-02T02:07:56;39.13;;;19.35;;
19879;SDS011;10102;50.828;4.416;2023-05-02T02:10:23;37.30;;;20.75;;
19879;SDS011;10102;50.828;4.416;2023-05-02T02:12:59;44.33;;;20.80;;
19879;SDS011;10102;50.828;4.416;2023-05-02T02:15:43;40.67;;;19.52;;
19879;SDS011;10102;50.828;4.416;2023-05-02T02:18:13;45.45;;;20.05;;
19879;SDS011;10102;50.828;4.416;2023-05-02T02:20:45;47.50;;;21.25;;
19879;SDS011;10102;50.828;4.416;2023-05-02T02:23:12;42.40;;;20.75;;
19879;SDS011;10102;50.828;4.416;2023-05-02T02:25:40;45.97;;;21.23;;
19879;SDS011;10102;50.828;4.416;2023-05-02T02:28:07;40.22;;;21.30;;
19879;SDS011;10102;50.828;4.416;2023-05-02T02:30:33;44.45;;;21.35;;
19879;SDS011;10102;50.828;4.416;2023-05-02T02:32:59;47.22;;;22.02;;
19879;SDS011;10102;50.828;4.416;2023-05-02T02:35:30;47.85;;;22.15;;
19879;SDS011;10102;50.828;4.416;2023-05-02T02:40:28;44.05;;;22.58;;
19879;SDS011;10102;50.828;4.416;2023-05-02T02:48:52;43.30;;;22.65;;
19879;SDS011;10102;50.828;4.416;2023-05-02T02:54:34;40.55;;;19.98;;
19879;SDS011;10102;50.828;4.416;2023-05-02T02:57:14;38.13;;;19.90;;
19879;SDS011;10102;50.828;4.416;2023-05-02T02:59:46;38.60;;;21.00;;
19879;SDS011;10102;50.828;4.416;2023-05-02T03:02:28;40.60;;;19.42;;
19879;SDS011;10102;50.828;4.416;2023-05-02T03:04:56;43.10;;;20.55;;
19879;SDS011;10102;50.828;4.416;2023-05-02T03:07:26;40.85;;;20.73;;
19879;SDS011;10102;50.828;4.416;2023-05-02T03:09:52;47.60;;;21.58;;
19879;SDS011;10102;50.828;4.416;2023-05-02T03:12:18;43.72;;;21.20;;
19879;SDS011;10102;50.828;4.416;2023-05-02T03:14:43;42.15;;;21.08;;
19879;SDS011;10102;50.828;4.416;2023-05-02T03:17:09;42.92;;;21.20;;
19879;SDS011;10102;50.828;4.416;2023-05-02T03:19:35;40.70;;;21.17;;
19879;SDS011;10102;50.828;4.416;2023-05-02T03:22:01;41.08;;;21.27;;
19879;SDS011;10102;50.828;4.416;2023-05-02T03:24:27;41.75;;;20.30;;
19879;SDS011;10102;50.828;4.416;2023-05-02T03:26:56;37.97;;;18.92;;
19879;SDS011;10102;50.828;4.416;2023-05-02T03:29:24;38.47;;;18.45;;
19879;SDS011;10102;50.828;4.416;2023-05-02T03:31:50;32.90;;;17.90;;
19879;SDS011;10102;50.828;4.416;2023-05-02T03:34:16;32.72;;;16.38;;
19879;SDS011;10102;50.828;4.416;2023-05-02T03:36:43;33.28;;;17.05;;
19879;SDS011;10102;50.828;4.416;2023-05-02T03:39:09;27.15;;;15.13;;
19879;SDS011;10102;50.828;4.416;2023-05-02T03:41:35;32.35;;;17.10;;
19879;SDS011;10102;50.828;4.416;2023-05-02T03:44:00;33.53;;;15.93;;
19879;SDS011;10102;50.828;4.416;2023-05-02T03:46:26;30.77;;;16.60;;
19879;SDS011;10102;50.828;4.416;2023-05-02T03:48:52;34.55;;;18.38;;
19879;SDS011;10102;50.828;4.416;2023-05-02T03:51:18;31.83;;;17.42;;
19879;SDS011;10102;50.828;4.416;2023-05-02T03:53:43;34.50;;;17.83;;
19879;SDS011;10102;50.828;4.416;2023-05-02T03:56:10;31.13;;;17.20;;
19879;SDS011;10102;50.828;4.416;2023-05-02T03:58:35;38.10;;;19.40;;
19879;SDS011;10102;50.828;4.416;2023-05-02T04:01:02;40.90;;;20.95;;
19879;SDS011;10102;50.828;4.416;2023-05-02T04:03:28;40.95;;;19.83;;
19879;SDS011;10102;50.828;4.416;2023-05-02T04:05:55;43.30;;;21.20;;
19879;SDS011;10102;50.828;4.416;2023-05-02T04:08:21;43.53;;;20.48;;
19879;SDS011;10102;50.828;4.416;2023-05-02T04:10:49;42.40;;;19.88;;
19879;SDS011;10102;50.828;4.416;2023-05-02T04:13:16;38.35;;;20.05;;
19879;SDS011;10102;50.828;4.416;2023-05-02T04:15:44;45.03;;;21.20;;
19879;SDS011;10102;50.828;4.416;2023-05-02T04:18:10;43.47;;;21.77;;
19879;SDS011;10102;50.828;4.416;2023-05-02T04:20:36;43.65;;;21.08;;
19879;SDS011;10102;50.828;4.416;2023-05-02T04:23:02;42.13;;;21.13;;
19879;SDS011;10102;50.828;4.416;2023-05-02T04:25:27;41.83;;;20.85;;
19879;SDS011;10102;50.828;4.416;2023-05-02T04:27:53;54.33;;;23.38;;
19879;SDS011;10102;50.828;4.416;2023-05-02T04:30:19;45.55;;;21.67;;
19879;SDS011;10102;50.828;4.416;2023-05-02T04:32:45;40.22;;;21.70;;
19879;SDS011;10102;50.828;4.416;2023-05-02T04:35:11;43.70;;;21.48;;
19879;SDS011;10102;50.828;4.416;2023-05-02T04:37:37;50.05;;;22.27;;
19879;SDS011;10102;50.828;4.416;2023-05-02T04:40:02;49.53;;;21.42;;
19879;SDS011;10102;50.828;4.416;2023-05-02T04:42:28;42.10;;;21.70;;
19879;SDS011;10102;50.828;4.416;2023-05-02T04:44:54;47.15;;;22.45;;
19879;SDS011;10102;50.828;4.416;2023-05-02T04:47:21;50.95;;;23.02;;
19879;SDS011;10102;50.828;4.416;2023-05-02T04:49:47;42.03;;;21.08;;
19879;SDS011;10102;50.828;4.416;2023-05-02T04:52:15;41.45;;;21.13;;
19879;SDS011;10102;50.828;4.416;2023-05-02T04:54:42;44.45;;;21.92;;
19879;SDS011;10102;50.828;4.416;2023-05-02T04:57:08;50.28;;;22.23;;
19879;SDS011;10102;50.828;4.416;2023-05-02T04:59:35;41.33;;;22.40;;
19879;SDS011;10102;50.828;4.416;2023-05-02T05:02:02;46.40;;;23.33;;
19879;SDS011;10102;50.828;4.416;2023-05-02T05:04:28;44.90;;;23.05;;
19879;SDS011;10102;50.828;4.416;2023-05-02T05:06:54;46.83;;;22.40;;
19879;SDS011;10102;50.828;4.416;2023-05-02T05:09:19;47.03;;;22.60;;
19879;SDS011;10102;50.828;4.416;2023-05-02T05:11:46;45.83;;;22.73;;
19879;SDS011;10102;50.828;4.416;2023-05-02T05:14:12;53.58;;;24.35;;
19879;SDS011;10102;50.828;4.416;2023-05-02T05:16:37;43.63;;;22.73;;
19879;SDS011;10102;50.828;4.416;2023-05-02T05:19:03;46.45;;;23.20;;
19879;SDS011;10102;50.828;4.416;2023-05-02T05:21:29;48.10;;;24.52;;
19879;SDS011;10102;50.828;4.416;2023-05-02T05:23:55;45.05;;;23.15;;
19879;SDS011;10102;50.828;4.416;2023-05-02T05:26:20;45.00;;;23.52;;
19879;SDS011;10102;50.828;4.416;2023-05-02T05:28:47;54.63;;;23.70;;
19879;SDS011;10102;50.828;4.416;2023-05-02T05:31:14;48.25;;;23.85;;
19879;SDS011;10102;50.828;4.416;2023-05-02T05:33:41;54.17;;;23.83;;
19879;SDS011;10102;50.828;4.416;2023-05-02T05:36:11;50.42;;;23.70;;
19879;SDS011;10102;50.828;4.416;2023-05-02T05:38:41;45.05;;;23.25;;
19879;SDS011;10102;50.828;4.416;2023-05-02T05:41:07;48.72;;;23.70;;
19879;SDS011;10102;50.828;4.416;2023-05-02T05:43:33;53.67;;;25.08;;
19879;SDS011;10102;50.828;4.416;2023-05-02T05:45:59;42.63;;;23.67;;
19879;SDS011;10102;50.828;4.416;2023-05-02T05:48:25;43.28;;;21.92;;
19879;SDS011;10102;50.828;4.416;2023-05-02T05:50:51;50.85;;;23.80;;
19879;SDS011;10102;50.828;4.416;2023-05-02T05:53:17;42.25;;;22.80;;
19879;SDS011;10102;50.828;4.416;2023-05-02T05:55:43;38.97;;;21.00;;
19879;SDS011;10102;50.828;4.416;2023-05-02T05:58:10;35.00;;;20.67;;
19879;SDS011;10102;50.828;4.416;2023-05-02T06:00:36;33.60;;;19.52;;
19879;SDS011;10102;50.828;4.416;2023-05-02T06:03:02;38.10;;;19.98;;
19879;SDS011;10102;50.828;4.416;2023-05-02T06:05:29;39.63;;;19.23;;
19879;SDS011;10102;50.828;4.416;2023-05-02T06:07:55;40.50;;;19.95;;
19879;SDS011;10102;50.828;4.416;2023-05-02T06:10:21;43.42;;;21.65;;
19879;SDS011;10102;50.828;4.416;2023-05-02T06:12:47;41.05;;;20.95;;
19879;SDS011;10102;50.828;4.416;2023-05-02T06:15:13;40.17;;;20.08;;
19879;SDS011;10102;50.828;4.416;2023-05-02T06:17:39;36.72;;;20.30;;
19879;SDS011;10102;50.828;4.416;2023-05-02T06:20:05;42.30;;;22.42;;
19879;SDS011;10102;50.828;4.416;2023-05-02T06:22:31;48.17;;;22.30;;
19879;SDS011;10102;50.828;4.416;2023-05-02T06:24:57;41.80;;;21.83;;
19879;SDS011;10102;50.828;4.416;2023-05-02T06:27:23;47.65;;;22.70;;
19879;SDS011;10102;50.828;4.416;2023-05-02T06:29:52;49.13;;;23.27;;
19879;SDS011;10102;50.828;4.416;2023-05-02T06:32:18;41.38;;;23.05;;
19879;SDS011;10102;50.828;4.416;2023-05-02T06:34:44;43.72;;;23.50;;
19879;SDS011;10102;50.828;4.416;2023-05-02T06:37:09;41.20;;;22.48;;
19879;SDS011;10102;50.828;4.416;2023-05-02T06:39:36;42.03;;;24.75;;
19879;SDS011;10102;50.828;4.416;2023-05-02T06:42:02;40.67;;;24.13;;
19879;SDS011;10102;50.828;4.416;2023-05-02T06:44:28;39.95;;;23.92;;
19879;SDS011;10102;50.828;4.416;2023-05-02T06:46:54;37.80;;;23.02;;
19879;SDS011;10102;50.828;4.416;2023-05-02T06:49:21;35.63;;;23.35;;
19879;SDS011;10102;50.828;4.416;2023-05-02T06:51:47;42.13;;;22.90;;
19879;SDS011;10102;50.828;4.416;2023-05-02T06:54:12;37.92;;;22.05;;
19879;SDS011;10102;50.828;4.416;2023-05-02T06:56:41;42.58;;;23.45;;
19879;SDS011;10102;50.828;4.416;2023-05-02T06:59:07;47.30;;;22.63;;
19879;SDS011;10102;50.828;4.416;2023-05-02T07:01:33;41.17;;;23.83;;
19879;SDS011;10102;50.828;4.416;2023-05-02T07:03:59;45.58;;;22.77;;
19879;SDS011;10102;50.828;4.416;2023-05-02T07:06:28;41.78;;;23.73;;
19879;SDS011;10102;50.828;4.416;2023-05-02T07:08:55;40.45;;;23.17;;
19879;SDS011;10102;50.828;4.416;2023-05-02T07:11:20;41.42;;;22.45;;
19879;SDS011;10102;50.828;4.416;2023-05-02T07:13:48;38.58;;;21.92;;
19879;SDS011;10102;50.828;4.416;2023-05-02T07:16:14;36.25;;;22.00;;
19879;SDS011;10102;50.828;4.416;2023-05-02T07:18:42;44.40;;;22.38;;
19879;SDS011;10102;50.828;4.416;2023-05-02T07:21:09;37.05;;;20.80;;
19879;SDS011;10102;50.828;4.416;2023-05-02T07:23:35;41.08;;;21.85;;
19879;SDS011;10102;50.828;4.416;2023-05-02T07:26:01;38.08;;;19.95;;
19879;SDS011;10102;50.828;4.416;2023-05-02T07:28:27;30.20;;;18.85;;
19879;SDS011;10102;50.828;4.416;2023-05-02T07:30:53;35.40;;;18.33;;
19879;SDS011;10102;50.828;4.416;2023-05-02T07:33:19;30.35;;;18.42;;
19879;SDS011;10102;50.828;4.416;2023-05-02T07:35:45;27.98;;;15.80;;
19879;SDS011;10102;50.828;4.416;2023-05-02T07:38:11;23.40;;;12.82;;
19879;SDS011;10102;50.828;4.416;2023-05-02T07:40:36;22.02;;;12.93;;
19879;SDS011;10102;50.828;4.416;2023-05-02T07:43:02;29.05;;;12.85;;
19879;SDS011;10102;50.828;4.416;2023-05-02T07:45:28;22.08;;;14.02;;
19879;SDS011;10102;50.828;4.416;2023-05-02T07:47:54;23.15;;;13.73;;
19879;SDS011;10102;50.828;4.416;2023-05-02T07:50:20;29.13;;;14.88;;
19879;SDS011;10102;50.828;4.416;2023-05-02T07:52:45;22.42;;;13.77;;
19879;SDS011;10102;50.828;4.416;2023-05-02T07:55:11;27.33;;;13.95;;
19879;SDS011;10102;50.828;4.416;2023-05-02T07:57:37;24.48;;;15.05;;
19879;SDS011;10102;50.828;4.416;2023-05-02T08:00:03;28.30;;;15.10;;
19879;SDS011;10102;50.828;4.416;2023-05-02T08:02:33;27.20;;;16.10;;
19879;SDS011;10102;50.828;4.416;2023-05-02T08:05:00;27.55;;;15.13;;
19879;SDS011;10102;50.828;4.416;2023-05-02T08:07:27;28.15;;;15.98;;
19879;SDS011;10102;50.828;4.416;2023-05-02T08:09:52;22.45;;;14.75;;
19879;SDS011;10102;50.828;4.416;2023-05-02T08:12:18;29.02;;;15.57;;
19879;SDS011;10102;50.828;4.416;2023-05-02T08:14:44;25.35;;;15.32;;
19879;SDS011;10102;50.828;4.416;2023-05-02T08:17:10;19.65;;;13.00;;
19879;SDS011;10102;50.828;4.416;2023-05-02T08:19:36;14.07;;;11.02;;
19879;SDS011;10102;50.828;4.416;2023-05-02T08:22:02;14.85;;;10.23;;
19879;SDS011;10102;50.828;4.416;2023-05-02T08:24:27;13.88;;;9.55;;
19879;SDS011;10102;50.828;4.416;2023-05-02T08:26:54;15.23;;;9.70;;
19879;SDS011;10102;50.828;4.416;2023-05-02T08:29:22;16.77;;;8.57;;
19879;SDS011;10102;50.828;4.416;2023-05-02T08:31:48;12.27;;;7.38;;
19879;SDS011;10102;50.828;4.416;2023-05-02T08:34:13;12.55;;;7.57;;
19879;SDS011;10102;50.828;4.416;2023-05-02T08:36:39;10.18;;;6.47;;
19879;SDS011;10102;50.828;4.416;2023-05-02T08:39:05;10.30;;;6.53;;
19879;SDS011;10102;50.828;4.416;2023-05-02T08:41:34;9.65;;;5.80;;
19879;SDS011;10102;50.828;4.416;2023-05-02T08:44:00;9.57;;;5.57;;
19879;SDS011;10102;50.828;4.416;2023-05-02T08:46:27;6.57;;;4.90;;
19879;SDS011;10102;50.828;4.416;2023-05-02T08:48:54;11.23;;;5.15;;
19879;SDS011;10102;50.828;4.416;2023-05-02T08:51:23;7.25;;;4.75;;
19879;SDS011;10102;50.828;4.416;2023-05-02T08:53:49;10.23;;;4.32;;
19879;SDS011;10102;50.828;4.416;2023-05-02T08:56:16;16.75;;;5.55;;
19879;SDS011;10102;50.828;4.416;2023-05-02T08:58:41;9.02;;;4.43;;
19879;SDS011;10102;50.828;4.416;2023-05-02T09:01:14;6.95;;;3.33;;
19879;SDS011;10102;50.828;4.416;2023-05-02T09:03:44;9.65;;;3.60;;
19879;SDS011;10102;50.828;4.416;2023-05-02T09:06:12;6.03;;;3.72;;
19879;SDS011;10102;50.828;4.416;2023-05-02T09:08:40;9.75;;;3.85;;
19879;SDS011;10102;50.828;4.416;2023-05-02T09:11:07;5.28;;;3.22;;
19879;SDS011;10102;50.828;4.416;2023-05-02T09:13:35;9.05;;;4.20;;
19879;SDS011;10102;50.828;4.416;2023-05-02T09:16:06;9.63;;;3.95;;
19879;SDS011;10102;50.828;4.416;2023-05-02T09:18:35;8.90;;;3.67;;
19879;SDS011;10102;50.828;4.416;2023-05-02T09:21:05;6.20;;;4.30;;
19879;SDS011;10102;50.828;4.416;2023-05-02T09:23:43;10.48;;;5.18;;
19879;SDS011;10102;50.828;4.416;2023-05-02T09:26:17;6.30;;;4.05;;
19879;SDS011;10102;50.828;4.416;2023-05-02T09:28:55;7.85;;;5.18;;
19879;SDS011;10102;50.828;4.416;2023-05-02T09:31:23;12.27;;;5.22;;
19879;SDS011;10102;50.828;4.416;2023-05-02T09:33:50;9.00;;;5.18;;
19879;SDS011;10102;50.828;4.416;2023-05-02T09:36:16;8.70;;;6.05;;
19879;SDS011;10102;50.828;4.416;2023-05-02T09:38:44;8.73;;;5.95;;
19879;SDS011;10102;50.828;4.416;2023-05-02T09:41:11;10.35;;;6.15;;
19879;SDS011;10102;50.828;4.416;2023-05-02T09:43:38;12.60;;;7.03;;
19879;SDS011;10102;50.828;4.416;2023-05-02T09:46:08;8.77;;;6.60;;
19879;SDS011;10102;50.828;4.416;2023-05-02T09:51:23;14.07;;;6.45;;
19879;SDS011;10102;50.828;4.416;2023-05-02T09:53:49;13.18;;;6.50;;
19879;SDS011;10102;50.828;4.416;2023-05-02T09:56:16;8.60;;;6.50;;
19879;SDS011;10102;50.828;4.416;2023-05-02T09:58:42;9.57;;;6.28;;
19879;SDS011;10102;50.828;4.416;2023-05-02T10:01:16;9.38;;;7.28;;
19879;SDS011;10102;50.828;4.416;2023-05-02T10:03:44;17.05;;;6.75;;
19879;SDS011;10102;50.828;4.416;2023-05-02T10:06:12;7.85;;;6.35;;
19879;SDS011;10102;50.828;4.416;2023-05-02T10:08:39;9.13;;;6.90;;
19879;SDS011;10102;50.828;4.416;2023-05-02T10:11:07;18.17;;;6.95;;
19879;SDS011;10102;50.828;4.416;2023-05-02T10:13:33;7.55;;;5.88;;
19879;SDS011;10102;50.828;4.416;2023-05-02T10:16:03;7.32;;;5.55;;
19879;SDS011;10102;50.828;4.416;2023-05-02T10:21:08;7.43;;;5.47;;
19879;SDS011;10102;50.828;4.416;2023-05-02T10:23:35;7.30;;;5.38;;
19879;SDS011;10102;50.828;4.416;2023-05-02T10:26:06;14.55;;;5.88;;
19879;SDS011;10102;50.828;4.416;2023-05-02T10:28:32;8.20;;;5.72;;
19879;SDS011;10102;50.828;4.416;2023-05-02T10:30:59;8.40;;;5.45;;
19879;SDS011;10102;50.828;4.416;2023-05-02T10:33:27;9.73;;;4.90;;
19879;SDS011;10102;50.828;4.416;2023-05-02T10:35:55;19.05;;;6.05;;
19879;SDS011;10102;50.828;4.416;2023-05-02T10:38:21;11.35;;;4.97;;
19879;SDS011;10102;50.828;4.416;2023-05-02T10:40:51;13.63;;;5.05;;
19879;SDS011;10102;50.828;4.416;2023-05-02T10:43:23;11.85;;;5.45;;
19879;SDS011;10102;50.828;4.416;2023-05-02T10:45:51;13.90;;;5.05;;
19879;SDS011;10102;50.828;4.416;2023-05-02T10:50:47;10.85;;;5.20;;
19879;SDS011;10102;50.828;4.416;2023-05-02T10:53:20;12.13;;;5.55;;
19879;SDS011;10102;50.828;4.416;2023-05-02T10:56:17;11.07;;;4.78;;
19879;SDS011;10102;50.828;4.416;2023-05-02T10:58:48;7.85;;;4.22;;
19879;SDS011;10102;50.828;4.416;2023-05-02T11:06:18;11.50;;;4.75;;
19879;SDS011;10102;50.828;4.416;2023-05-02T11:08:43;7.95;;;4.82;;
19879;SDS011;10102;50.828;4.416;2023-05-02T11:14:06;8.32;;;4.93;;
19879;SDS011;10102;50.828;4.416;2023-05-02T11:19:24;10.15;;;5.03;;
19879;SDS011;10102;50.828;4.416;2023-05-02T11:21:50;10.52;;;5.38;;
19879;SDS011;10102;50.828;4.416;2023-05-02T11:29:58;13.30;;;4.95;;
19879;SDS011;10102;50.828;4.416;2023-05-02T11:32:24;9.95;;;4.90;;
19879;SDS011;10102;50.828;4.416;2023-05-02T11:35:19;9.30;;;5.10;;
19879;SDS011;10102;50.828;4.416;2023-05-02T11:37:54;9.15;;;4.90;;
19879;SDS011;10102;50.828;4.416;2023-05-02T11:40:21;13.35;;;5.28;;
19879;SDS011;10102;50.828;4.416;2023-05-02T11:42:47;12.20;;;4.47;;
19879;SDS011;10102;50.828;4.416;2023-05-02T11:45:13;16.30;;;4.90;;
19879;SDS011;10102;50.828;4.416;2023-05-02T11:47:40;10.30;;;4.45;;
19879;SDS011;10102;50.828;4.416;2023-05-02T11:50:07;11.35;;;5.00;;
19879;SDS011;10102;50.828;4.416;2023-05-02T11:52:39;15.13;;;5.78;;
19879;SDS011;10102;50.828;4.416;2023-05-02T11:55:06;8.35;;;4.80;;
19879;SDS011;10102;50.828;4.416;2023-05-02T11:57:35;7.00;;;4.30;;
19879;SDS011;10102;50.828;4.416;2023-05-02T12:00:01;10.90;;;4.63;;
19879;SDS011;10102;50.828;4.416;2023-05-02T12:05:26;7.60;;;5.05;;
19879;SDS011;10102;50.828;4.416;2023-05-02T12:07:56;7.10;;;5.00;;
19879;SDS011;10102;50.828;4.416;2023-05-02T12:10:22;8.55;;;4.85;;
19879;SDS011;10102;50.828;4.416;2023-05-02T12:13:02;12.57;;;5.35;;
19879;SDS011;10102;50.828;4.416;2023-05-02T12:15:29;14.82;;;4.80;;
19879;SDS011;10102;50.828;4.416;2023-05-02T12:17:55;14.77;;;4.25;;
19879;SDS011;10102;50.828;4.416;2023-05-02T12:20:21;8.85;;;4.25;;
19879;SDS011;10102;50.828;4.416;2023-05-02T12:22:47;10.77;;;4.13;;
19879;SDS011;10102;50.828;4.416;2023-05-02T12:25:13;10.63;;;3.97;;
19879;SDS011;10102;50.828;4.416;2023-05-02T12:27:39;8.70;;;4.10;;
19879;SDS011;10102;50.828;4.416;2023-05-02T12:30:05;16.08;;;4.45;;
19879;SDS011;10102;50.828;4.416;2023-05-02T12:32:33;12.90;;;4.28;;
19879;SDS011;10102;50.828;4.416;2023-05-02T12:35:01;7.32;;;4.38;;
19879;SDS011;10102;50.828;4.416;2023-05-02T12:37:27;17.77;;;4.45;;
19879;SDS011;10102;50.828;4.416;2023-05-02T12:39:54;15.00;;;4.15;;
19879;SDS011;10102;50.828;4.416;2023-05-02T12:42:22;13.77;;;4.10;;
19879;SDS011;10102;50.828;4.416;2023-05-02T12:44:50;8.90;;;3.58;;
19879;SDS011;10102;50.828;4.416;2023-05-02T12:47:20;10.73;;;4.10;;
19879;SDS011;10102;50.828;4.416;2023-05-02T12:49:56;7.63;;;3.63;;
19879;SDS011;10102;50.828;4.416;2023-05-02T12:55:14;9.73;;;4.20;;
19879;SDS011;10102;50.828;4.416;2023-05-02T12:57:44;10.65;;;3.88;;
19879;SDS011;10102;50.828;4.416;2023-05-02T13:00:10;9.57;;;3.90;;
19879;SDS011;10102;50.828;4.416;2023-05-02T13:02:36;8.23;;;3.60;;
19879;SDS011;10102;50.828;4.416;2023-05-02T13:05:02;6.65;;;3.90;;
19879;SDS011;10102;50.828;4.416;2023-05-02T13:07:46;9.43;;;3.67;;
19879;SDS011;10102;50.828;4.416;2023-05-02T13:10:12;7.82;;;3.25;;
19879;SDS011;10102;50.828;4.416;2023-05-02T13:12:38;7.95;;;2.92;;
19879;SDS011;10102;50.828;4.416;2023-05-02T13:15:04;8.13;;;3.20;;
19879;SDS011;10102;50.828;4.416;2023-05-02T13:17:31;6.53;;;3.50;;
19879;SDS011;10102;50.828;4.416;2023-05-02T13:19:58;11.15;;;4.25;;
19879;SDS011;10102;50.828;4.416;2023-05-02T13:22:23;6.53;;;3.65;;
19879;SDS011;10102;50.828;4.416;2023-05-02T13:24:49;10.43;;;3.42;;
19879;SDS011;10102;50.828;4.416;2023-05-02T13:27:16;7.30;;;3.28;;
19879;SDS011;10102;50.828;4.416;2023-05-02T13:29:42;6.50;;;3.10;;
19879;SDS011;10102;50.828;4.416;2023-05-02T13:32:09;10.73;;;3.45;;
19879;SDS011;10102;50.828;4.416;2023-05-02T13:34:34;9.48;;;3.47;;
19879;SDS011;10102;50.828;4.416;2023-05-02T13:37:00;6.28;;;3.10;;
19879;SDS011;10102;50.828;4.416;2023-05-02T13:39:26;7.68;;;3.42;;
19879;SDS011;10102;50.828;4.416;2023-05-02T13:41:51;9.35;;;3.67;;
19879;SDS011;10102;50.828;4.416;2023-05-02T13:44:17;6.88;;;3.92;;
19879;SDS011;10102;50.828;4.416;2023-05-02T13:46:43;16.05;;;4.05;;
19879;SDS011;10102;50.828;4.416;2023-05-02T13:49:08;13.57;;;4.00;;
19879;SDS011;10102;50.828;4.416;2023-05-02T13:51:34;7.53;;;3.13;;
19879;SDS011;10102;50.828;4.416;2023-05-02T13:54:00;9.38;;;3.50;;
19879;SDS011;10102;50.828;4.416;2023-05-02T13:56:26;7.88;;;3.75;;
19879;SDS011;10102;50.828;4.416;2023-05-02T13:58:52;7.05;;;3.60;;
19879;SDS011;10102;50.828;4.416;2023-05-02T14:01:18;6.10;;;3.55;;
19879;SDS011;10102;50.828;4.416;2023-05-02T14:03:43;4.95;;;3.38;;
19879;SDS011;10102;50.828;4.416;2023-05-02T14:06:09;10.98;;;4.10;;
19879;SDS011;10102;50.828;4.416;2023-05-02T14:08:35;9.88;;;3.78;;
19879;SDS011;10102;50.828;4.416;2023-05-02T14:11:01;8.32;;;3.42;;
19879;SDS011;10102;50.828;4.416;2023-05-02T14:13:27;8.10;;;3.78;;
19879;SDS011;10102;50.828;4.416;2023-05-02T14:15:52;9.38;;;3.70;;
19879;SDS011;10102;50.828;4.416;2023-05-02T14:18:18;10.00;;;3.40;;
19879;SDS011;10102;50.828;4.416;2023-05-02T14:20:45;11.10;;;3.55;;
19879;SDS011;10102;50.828;4.416;2023-05-02T14:23:10;7.95;;;3.50;;
19879;SDS011;10102;50.828;4.416;2023-05-02T14:25:37;9.80;;;3.78;;
19879;SDS011;10102;50.828;4.416;2023-05-02T14:28:03;10.05;;;3.60;;
19879;SDS011;10102;50.828;4.416;2023-05-02T14:30:29;7.00;;;3.42;;
19879;SDS011;10102;50.828;4.416;2023-05-02T14:32:58;8.35;;;3.13;;
19879;SDS011;10102;50.828;4.416;2023-05-02T14:35:24;5.85;;;2.78;;
19879;SDS011;10102;50.828;4.416;2023-05-02T14:37:50;6.30;;;3.13;;
19879;SDS011;10102;50.828;4.416;2023-05-02T14:40:15;8.13;;;3.40;;
19879;SDS011;10102;50.828;4.416;2023-05-02T14:42:41;4.95;;;2.83;;
19879;SDS011;10102;50.828;4.416;2023-05-02T14:45:08;12.00;;;3.28;;
19879;SDS011;10102;50.828;4.416;2023-05-02T14:47:34;18.85;;;3.60;;
19879;SDS011;10102;50.828;4.416;2023-05-02T14:50:03;13.60;;;4.00;;
19879;SDS011;10102;50.828;4.416;2023-05-02T14:52:30;8.35;;;3.58;;
19879;SDS011;10102;50.828;4.416;2023-05-02T14:54:59;9.88;;;3.92;;
19879;SDS011;10102;50.828;4.416;2023-05-02T14:57:26;8.10;;;4.00;;
19879;SDS011;10102;50.828;4.416;2023-05-02T14:59:51;11.88;;;3.90;;
19879;SDS011;10102;50.828;4.416;2023-05-02T15:02:17;8.55;;;4.07;;
19879;SDS011;10102;50.828;4.416;2023-05-02T15:04:43;10.45;;;3.65;;
19879;SDS011;10102;50.828;4.416;2023-05-02T15:07:09;6.18;;;3.30;;
19879;SDS011;10102;50.828;4.416;2023-05-02T15:09:35;7.72;;;3.58;;
19879;SDS011;10102;50.828;4.416;2023-05-02T15:12:01;9.90;;;3.53;;
19879;SDS011;10102;50.828;4.416;2023-05-02T15:14:27;6.65;;;3.88;;
19879;SDS011;10102;50.828;4.416;2023-05-02T15:16:53;8.18;;;4.03;;
19879;SDS011;10102;50.828;4.416;2023-05-02T15:19:19;10.07;;;4.30;;
19879;SDS011;10102;50.828;4.416;2023-05-02T15:21:47;10.65;;;4.63;;
19879;SDS011;10102;50.828;4.416;2023-05-02T15:24:14;7.38;;;4.22;;
19879;SDS011;10102;50.828;4.416;2023-05-02T15:26:40;9.45;;;4.13;;
19879;SDS011;10102;50.828;4.416;2023-05-02T15:29:06;8.23;;;4.22;;